createdAt,value
2018-06-19T19:28:47.871Z,25.60
2018-06-19T19:31:17.081Z,25.50
2018-06-19T19:33:45.868Z,25.40
2018-06-19T19:36:19.827Z,25.40
2018-06-19T19:38:53.950Z,25.20
2018-06-19T19:41:23.491Z,25.10
2018-06-19T19:43:52.215Z,25.00
2018-06-19T19:46:26.434Z,24.90
2018-06-19T19:56:31.726Z,24.40
2018-06-19T19:59:01.280Z,24.20
2018-06-19T20:06:52.533Z,24.00
2018-06-19T20:15:15.626Z,24.20
2018-06-19T20:23:36.786Z,23.90
2018-06-19T20:32:01.177Z,23.80
2018-06-19T20:34:29.881Z,22.90
2018-06-19T20:51:47.602Z,23.80
2018-06-19T20:54:16.091Z,23.90
2018-06-19T20:56:44.597Z,23.80
2018-06-19T20:59:13.070Z,23.80
2018-06-19T21:01:41.608Z,23.80
2018-06-19T21:04:10.086Z,23.80
2018-06-19T21:06:38.631Z,23.80
2018-06-19T21:09:08.016Z,23.70
2018-06-19T21:11:36.538Z,23.70
2018-06-19T21:14:04.995Z,23.70
2018-06-19T21:16:33.510Z,23.70
2018-06-19T21:19:02.017Z,23.60
2018-06-19T21:21:30.538Z,23.60
2018-06-19T21:23:58.978Z,23.50
2018-06-19T21:26:27.489Z,23.40
2018-06-19T21:28:55.928Z,23.30
2018-06-19T21:31:24.398Z,23.30
2018-06-19T21:33:52.838Z,23.30
2018-06-19T21:38:49.578Z,23.00
2018-06-19T21:46:14.336Z,23.00
2018-06-19T21:51:10.957Z,23.00
2018-06-19T21:58:35.752Z,22.90
2018-06-19T22:03:32.424Z,22.90
2018-06-19T22:06:00.868Z,22.90
2018-06-19T22:08:49.831Z,22.90
2018-06-19T22:11:18.299Z,22.60
2018-06-19T22:13:47.034Z,22.60
2018-06-19T22:16:15.414Z,22.50
2018-06-19T22:18:43.879Z,22.50
2018-06-19T22:21:12.351Z,22.60
2018-06-19T22:23:40.823Z,22.50
2018-06-19T22:26:09.278Z,22.40
2018-06-19T22:28:37.739Z,22.40
2018-06-19T22:31:06.299Z,22.30
2018-06-19T22:33:34.783Z,22.30
2018-06-19T22:40:59.568Z,22.20
2018-06-19T22:43:28.122Z,22.20
2018-06-19T22:45:56.619Z,22.10
2018-06-19T22:50:53.243Z,22.10
2018-06-19T22:53:21.711Z,22.00
2018-06-19T22:55:50.337Z,22.00
2018-06-19T22:58:18.814Z,22.00
2018-06-19T23:00:47.275Z,22.00
2018-06-19T23:05:44.023Z,21.90
2018-06-19T23:08:12.559Z,21.90
2018-06-19T23:10:41.011Z,21.80
2018-06-19T23:18:05.810Z,21.50
2018-06-19T23:20:34.287Z,21.40
2018-06-19T23:23:02.812Z,21.40
2018-06-19T23:25:31.291Z,21.40
2018-06-19T23:30:27.911Z,21.40
2018-06-19T23:32:56.462Z,21.40
2018-06-19T23:40:21.346Z,21.40
2018-06-19T23:45:18.011Z,21.30
2018-06-19T23:47:46.465Z,21.30
2018-06-19T23:50:14.933Z,21.40
2018-06-19T23:52:43.401Z,21.30
2018-06-19T23:55:11.994Z,21.20
